TimeEST,TemperatureF,Dew PointF,Humidity,Sea Level PressureIn,VisibilityMPH,Wind Direction,Wind SpeedMPH,Gust SpeedMPH,PrecipitationIn,Events,Conditions,WindDirDegrees,DateUTC
12:21 AM,14.0,1.4,57,29.97,2.0,West,21.9,29.9,0.00,Snow,Blowing Snow,280,2013-01-22 05:21:00
12:30 AM,12.2,3.2,67,29.97,1.5,West,21.9,33.4,0.00,Snow,Light Snow,280,2013-01-22 05:30:00
12:51 AM,12.0,6.1,77,30.02,0.5,West,20.7,35.7,0.00,Snow,Snow,270,2013-01-22 05:51:00
1:28 AM,10.4,5.0,79,29.98,0.8,West,17.3,28.8,0.00,Snow,Light Snow,280,2013-01-22 06:28:00
1:34 AM,10.4,5.0,79,29.99,0.5,West,19.6,34.5,0.00,Snow,Snow,260,2013-01-22 06:34:00
1:51 AM,10.9,5.0,77,30.04,0.5,West,20.7,35.7,0.00,Snow,Snow,270,2013-01-22 06:51:00
2:14 AM,10.4,1.4,67,30.01,0.8,West,21.9,35.7,0.00,Snow,Light Snow,280,2013-01-22 07:14:00
2:22 AM,10.4,-0.4,62,30.01,1.0,West,23.0,34.5,0.00,Snow,Light Snow,280,2013-01-22 07:22:00
2:29 AM,10.4,1.4,67,30.01,1.0,West,19.6,34.5,0.00,Snow,Light Snow,270,2013-01-22 07:29:00
2:51 AM,10.9,-0.9,59,30.06,1.5,West,19.6,38.0,0.00,Snow,Blowing Snow,280,2013-01-22 07:51:00
3:29 AM,10.4,1.4,67,30.02,0.8,West,24.2,41.4,0.00,Snow,Light Snow,270,2013-01-22 08:29:00
3:49 AM,10.4,-0.4,62,30.03,1.0,West,21.9,35.7,0.00,Snow,Light Snow,260,2013-01-22 08:49:00
3:51 AM,10.9,1.0,64,30.07,1.0,West,19.6,33.4,0.00,Snow,Light Snow,270,2013-01-22 08:51:00
4:11 AM,10.4,1.4,67,30.03,1.2,West,20.7,39.1,0.00,Snow,Light Snow,280,2013-01-22 09:11:00
4:51 AM,10.4,-0.4,62,30.03,1.2,West,23.0,35.7,N/A,Snow,Light Snow,270,2013-01-22 09:51:00
5:20 AM,10.4,1.4,67,30.04,0.8,West,24.2,35.7,0.00,Snow,Light Snow,270,2013-01-22 10:20:00
5:34 AM,10.4,-0.4,62,30.04,1.2,West,23.0,39.1,0.04,Snow,Light Snow,280,2013-01-22 10:34:00
5:47 AM,10.4,-2.2,57,30.04,1.5,West,24.2,39.1,0.04,Snow,Blowing Snow,270,2013-01-22 10:47:00
5:51 AM,10.0,-2.9,56,30.09,2.0,West,21.9,38.0,0.04,Snow,Blowing Snow,260,2013-01-22 10:51:00
5:59 AM,10.4,-0.4,62,30.05,1.0,West,24.2,36.8,0.00,Snow,Light Snow,270,2013-01-22 10:59:00
6:01 AM,10.4,1.4,67,30.05,0.5,West,17.3,36.8,0.00,Snow,Snow,280,2013-01-22 11:01:00
6:23 AM,8.6,1.4,73,30.06,1.0,WNW,18.4,31.1,0.00,Snow,Light Snow,290,2013-01-22 11:23:00
6:51 AM,9.0,-0.9,64,30.12,1.5,West,23.0,35.7,0.00,Snow,Light Snow,280,2013-01-22 11:51:00
7:38 AM,8.6,-2.2,62,30.09,1.8,WNW,20.7,39.1,0.00,Snow,Blowing Snow,290,2013-01-22 12:38:00
7:46 AM,8.6,-2.2,62,30.09,2.5,West,20.7,38.0,0.00,Snow,Blowing Snow,280,2013-01-22 12:46:00
7:51 AM,8.1,-2.0,64,30.14,1.8,WNW,27.6,38.0,0.00,Snow,Blowing Snow,290,2013-01-22 12:51:00
8:39 AM,8.6,-0.4,67,30.11,0.5,West,24.2,41.4,0.00,Snow,Snow,270,2013-01-22 13:39:00
8:51 AM,8.1,-2.0,64,30.16,0.5,West,24.2,43.7,0.00,Snow,Snow,270,2013-01-22 13:51:00
8:58 AM,8.6,-2.2,62,30.12,0.8,West,25.3,40.3,0.00,Snow,Light Snow,270,2013-01-22 13:58:00
9:15 AM,8.6,-2.2,62,30.13,1.0,West,24.2,35.7,0.00,Snow,Light Snow,270,2013-01-22 14:15:00
9:46 AM,8.6,-2.2,62,30.14,0.8,West,23.0,36.8,0.00,Snow,Light Snow,280,2013-01-22 14:46:00
9:51 AM,7.0,-0.9,70,30.19,0.5,West,18.4,36.8,0.00,Snow,Snow,280,2013-01-22 14:51:00
10:21 AM,8.6,-0.4,67,30.16,1.0,West,20.7,33.4,0.00,Snow,Light Snow,280,2013-01-22 15:21:00
10:41 AM,6.8,-2.2,67,30.17,1.2,WNW,19.6,29.9,0.00,Snow,Light Snow,290,2013-01-22 15:41:00
10:51 AM,7.0,-2.0,67,30.22,1.0,WNW,16.1,32.2,0.00,Snow,Light Snow,290,2013-01-22 15:51:00
11:03 AM,6.8,-2.2,67,30.18,2.0,West,18.4,29.9,0.00,Snow,Light Snow,280,2013-01-22 16:03:00
11:29 AM,6.8,-2.2,67,30.17,1.8,West,17.3,32.2,0.00,Snow,Light Snow,280,2013-01-22 16:29:00
11:36 AM,6.8,-2.2,67,30.17,3.0,West,20.7,29.9,0.00,,Overcast,270,2013-01-22 16:36:00
11:51 AM,7.0,-2.9,64,30.22,4.0,West,17.3,28.8,0.00,Snow,Blowing Snow,280,2013-01-22 16:51:00
12:13 PM,8.6,-2.2,62,30.17,2.5,West,20.7,29.9,0.00,,Overcast,270,2013-01-22 17:13:00
12:24 PM,8.6,-4.0,57,30.16,4.0,West,17.3,31.1,0.00,,Overcast,280,2013-01-22 17:24:00
12:32 PM,8.6,-2.2,62,30.16,1.5,West,17.3,26.5,0.00,Snow,Light Snow,270,2013-01-22 17:32:00
12:47 PM,8.6,-0.4,67,30.16,0.8,West,17.3,27.6,0.00,Snow,Light Snow,280,2013-01-22 17:47:00
12:51 PM,8.1,-0.0,70,30.21,0.8,West,16.1,26.5,0.00,Snow,Light Snow,270,2013-01-22 17:51:00
1:12 PM,8.6,1.4,73,30.15,0.5,West,19.6,27.6,0.00,Snow,Snow,270,2013-01-22 18:12:00
1:16 PM,8.6,-2.2,62,30.15,0.8,West,16.1,29.9,0.00,Snow,Light Snow,280,2013-01-22 18:16:00
1:23 PM,8.6,-2.2,62,30.15,1.5,West,18.4,29.9,0.00,Snow,Light Snow,270,2013-01-22 18:23:00
1:37 PM,8.6,-2.2,62,30.14,3.0,West,23.0,31.1,0.00,Snow,Blowing Snow,260,2013-01-22 18:37:00
1:51 PM,9.0,-2.9,59,30.19,3.0,West,18.4,32.2,0.00,Snow,Blowing Snow,270,2013-01-22 18:51:00
2:51 PM,10.0,-0.9,61,30.21,3.0,West,17.3,29.9,0.00,,Overcast,270,2013-01-22 19:51:00
2:59 PM,8.6,-0.4,67,30.16,1.8,West,19.6,33.4,0.00,Snow,Light Snow,280,2013-01-22 19:59:00
3:09 PM,8.6,1.4,73,30.16,1.0,West,17.3,27.6,0.00,Snow,Light Snow,270,2013-01-22 20:09:00
3:21 PM,8.6,1.4,73,30.16,0.8,WNW,17.3,31.1,0.00,Snow,Light Snow,290,2013-01-22 20:21:00
3:51 PM,10.0,1.9,70,30.22,0.8,West,16.1,25.3,0.00,Snow,Light Snow,270,2013-01-22 20:51:00
4:00 PM,10.4,1.4,67,30.17,0.5,West,13.8,25.3,0.00,Snow,Snow,270,2013-01-22 21:00:00
4:09 PM,10.4,1.4,67,30.18,1.0,West,17.3,25.3,0.00,Snow,Light Snow,280,2013-01-22 21:09:00
4:28 PM,10.4,1.4,67,30.18,0.8,West,19.6,27.6,0.00,Snow,Light Snow,280,2013-01-22 21:28:00
4:41 PM,10.4,3.2,73,30.18,0.2,West,16.1,25.3,0.00,Snow,Heavy Snow,280,2013-01-22 21:41:00
4:51 PM,10.0,5.0,80,30.23,0.2,West,17.3,32.2,0.00,Snow,Heavy Snow,270,2013-01-22 21:51:00
5:04 PM,10.4,6.8,85,30.18,0.2,West,12.7,24.2,0.00,Fog-Snow,Snow,270,2013-01-22 22:04:00
5:15 PM,10.4,3.2,73,30.18,0.8,West,12.7,25.3,0.00,Snow,Light Snow,270,2013-01-22 22:15:00
5:21 PM,10.4,1.4,67,30.18,1.0,West,15.0,25.3,0.00,Snow,Light Snow,270,2013-01-22 22:21:00
5:29 PM,10.4,-0.4,62,30.18,2.0,West,15.0,28.8,0.00,Snow,Blowing Snow,260,2013-01-22 22:29:00
5:49 PM,12.2,-2.2,53,30.18,6.0,West,13.8,23.0,0.00,,Haze,270,2013-01-22 22:49:00
5:51 PM,12.0,-0.9,56,30.23,7.0,West,16.1,23.0,0.00,,Overcast,280,2013-01-22 22:51:00
6:21 PM,12.2,3.2,67,30.19,2.5,West,10.4,21.9,0.00,Snow,Light Snow,260,2013-01-22 23:21:00
6:35 PM,10.4,6.8,85,30.19,1.0,West,13.8,26.5,0.00,Snow,Light Snow,260,2013-01-22 23:35:00
6:51 PM,10.9,5.0,77,30.25,1.0,West,6.9,25.3,0.00,Snow,Light Snow,260,2013-01-22 23:51:00
7:09 PM,10.4,3.2,73,30.20,2.0,West,11.5,23.0,0.00,Snow,Light Snow,260,2013-01-23 00:09:00
7:16 PM,12.2,5.0,73,30.19,1.2,West,11.5,25.3,0.00,Snow,Light Snow,280,2013-01-23 00:16:00
7:40 PM,10.4,5.0,79,30.19,0.8,West,13.8,26.5,0.01,Snow,Light Snow,270,2013-01-23 00:40:00
7:47 PM,12.2,3.2,67,30.19,1.5,West,15.0,24.2,0.01,Snow,Light Snow,270,2013-01-23 00:47:00
7:51 PM,12.0,3.0,67,30.25,1.8,West,11.5,24.2,0.01,Snow,Light Snow,270,2013-01-23 00:51:00
8:06 PM,10.4,5.0,79,30.19,0.8,West,18.4,25.3,0.00,Snow,Light Snow,280,2013-01-23 01:06:00
8:18 PM,10.4,3.2,73,30.19,1.0,West,15.0,26.5,0.00,Snow,Light Snow,280,2013-01-23 01:18:00
8:32 PM,12.2,1.4,62,30.20,3.0,WNW,17.3,29.9,0.00,Snow,Light Snow,290,2013-01-23 01:32:00
8:40 PM,12.2,1.4,62,30.20,1.8,West,18.4,25.3,0.00,Snow,Light Snow,270,2013-01-23 01:40:00
8:51 PM,12.0,-0.9,56,30.25,1.5,West,19.6,29.9,0.00,Snow,Light Snow,270,2013-01-23 01:51:00
9:03 PM,12.2,1.4,62,30.20,2.0,West,17.3,28.8,0.00,Snow,Light Snow,280,2013-01-23 02:03:00
9:29 PM,12.2,1.4,62,30.19,5.0,WNW,13.8,24.2,0.00,Snow,Blowing Snow,300,2013-01-23 02:29:00
9:51 PM,12.0,1.9,64,30.24,5.0,WNW,13.8,24.2,0.00,Snow,Light Snow,290,2013-01-23 02:51:00
10:06 PM,12.2,1.4,62,30.19,2.0,WNW,13.8,25.3,0.00,Snow,Light Snow,290,2013-01-23 03:06:00
10:10 PM,12.2,1.4,62,30.19,3.0,WNW,13.8,24.2,0.00,Snow,Light Snow,290,2013-01-23 03:10:00
10:20 PM,12.2,1.4,62,30.19,7.0,WNW,15.0,25.3,0.00,Snow,Light Snow,290,2013-01-23 03:20:00
10:51 PM,12.9,-0.0,56,30.24,10.0,WNW,15.0,21.9,0.00,,Overcast,300,2013-01-23 03:51:00
11:12 PM,12.2,3.2,67,30.19,1.8,WNW,11.5,24.2,0.00,Snow,Light Snow,290,2013-01-23 04:12:00
11:20 PM,12.2,1.4,62,30.18,3.0,WNW,13.8,-,0.00,Snow,Light Snow,300,2013-01-23 04:20:00
11:51 PM,12.0,3.0,67,30.23,4.0,WNW,12.7,21.9,0.00,Snow,Light Snow,290,2013-01-23 04:51:00
11:58 PM,12.2,3.2,67,30.18,2.5,WNW,13.8,31.1,0.00,Snow,Light Snow,300,2013-01-23 04:58:00